PST,Max TemperatureF,Mean TemperatureF,Min TemperatureF,Max Dew PointF,MeanDew PointF,Min DewpointF,Max Humidity, Mean Humidity, Min Humidity, Max Sea Level PressureIn, Mean Sea Level PressureIn, Min Sea Level PressureIn, Max VisibilityMiles, Mean VisibilityMiles, Min VisibilityMiles, Max Wind SpeedMPH, Mean Wind SpeedMPH, Max Gust SpeedMPH,PrecipitationIn, CloudCover, Events, WindDirDegrees
2013-1-1,32,30,28,25,22,19,86,74,64,30.68,30.65,30.58,10,10,10,8,2,,0.00,8,,132
2013-1-2,32,30,28,24,22,21,76,71,67,30.66,30.61,30.54,10,10,10,12,6,,0.00,8,,111
2013-1-3,33,29,25,22,20,18,78,67,59,30.53,30.46,30.42,10,10,10,12,6,,0.00,7,,126
2013-1-4,33,27,21,20,18,16,80,71,56,30.48,30.45,30.41,10,10,10,6,3,,0.00,4,,109
2013-1-5,30,28,27,28,26,20,100,89,75,30.46,30.36,30.30,10,3,0,4,0,,0.16,8,Fog-Snow,120
2013-1-6,34,28,21,28,25,21,100,85,72,30.30,30.24,30.12,10,6,2,4,0,,0.00,6,,112
2013-1-7,55,44,32,43,34,28,93,82,59,30.14,30.04,29.96,10,6,2,15,2,23,0.03,6,Rain,329
2013-1-8,48,40,33,41,38,32,100,90,66,30.18,30.03,29.91,10,6,0,10,3,,0.04,6,Fog-Rain,231
2013-1-9,46,39,32,37,34,31,100,86,66,29.96,29.82,29.70,10,6,0,20,6,28,0.00,5,Fog-Rain,312
2013-1-10,45,38,30,30,28,25,85,68,48,30.05,30.00,29.95,10,10,10,20,9,26,0.00,1,,294
2013-1-11,42,33,23,28,22,14,82,66,32,30.33,30.22,30.05,10,10,9,10,4,,0.00,2,Snow,317
2013-1-12,37,28,19,24,20,16,85,78,57,30.43,30.37,30.32,10,10,10,5,2,,0.00,0,,112
2013-1-13,30,24,17,22,19,14,93,82,69,30.54,30.49,30.43,10,10,6,5,2,,0.00,5,,125
2013-1-14,43,32,21,31,24,19,89,76,51,30.51,30.45,30.37,10,10,8,17,4,26,0.00,3,,304
2013-1-15,45,36,26,32,28,23,96,82,60,30.66,30.61,30.52,10,10,8,7,1,,0.00,3,,127
2013-1-16,35,32,30,31,29,26,89,84,75,30.64,30.61,30.59,10,9,6,7,2,,0.00,8,,128
2013-1-17,32,31,30,26,25,25,85,79,75,30.64,30.58,30.48,10,8,5,7,3,,0.00,8,,118
2013-1-18,35,31,27,27,26,24,92,79,70,30.45,30.38,30.32,10,9,6,4,1,,0.00,5,,259
2013-1-19,32,31,30,28,26,25,93,84,79,30.55,30.48,30.39,10,8,6,6,4,,0.00,8,,114
2013-1-20,30,29,28,25,24,24,86,82,79,30.62,30.56,30.51,10,7,6,9,6,,0.00,8,,78
2013-1-21,30,29,28,25,23,22,86,79,75,30.50,30.44,30.39,10,7,4,8,5,,0.00,8,,82
2013-1-22,28,28,28,23,22,21,81,78,74,30.41,30.34,30.25,10,8,6,23,7,34,0.00,8,,80
2013-1-23,32,30,27,25,22,21,85,76,69,30.24,30.15,30.06,9,7,4,12,7,,0.00,7,,85
2013-1-24,35,30,24,32,28,21,93,88,80,30.29,30.25,30.21,10,6,3,6,2,,0.00,8,Rain,72
2013-1-25,39,36,33,36,34,31,100,92,79,30.20,30.05,29.98,9,4,0,5,0,,0.05,8,Fog-Rain,82
2013-1-26,43,38,34,38,35,30,100,92,73,30.06,29.99,29.96,10,5,0,8,1,,0.00,6,Fog,16
2013-1-27,46,37,28,35,31,26,93,80,65,30.10,30.06,30.03,10,10,10,15,4,25,0.00,3,,281
2013-1-28,46,40,33,37,34,30,89,76,63,30.08,30.05,30.03,10,10,10,17,6,24,0.04,5,Rain,318
2013-1-29,50,46,43,39,37,35,76,69,63,30.35,30.24,30.04,10,10,10,25,15,33,0.00,4,,302
2013-1-30,53,50,46,43,40,37,80,71,64,30.37,30.36,30.34,10,10,10,20,12,21,0.00,7,,317
2013-1-31,55,49,39,41,39,35,86,70,55,30.37,30.33,30.29,10,10,10,25,12,30,0.00,1,,318